PILOTS ONLINE: 423    ATC ONLINE: 63

EGHH

Bournemouth Airport

Location

IATA BOH
City Bournemouth
Country  United Kingdom
Latitude 50° 46' 47" N
Longitude 1° 50' 33" W
Elevation 38 ft
Type Large Airport

Map

Weather

METAR
2014/10/21 14:50
EGHH 211450Z 31021G33KT 9999 FEW035 SCT045 12/04 Q1013
TAF
2013/12/01 21:21
TAF TAF EGHH 010016Z 3021/0106 CNL

Runways

08/26 7451 ft / 151 ft

Outbound flights

Callsign Flying to Pilot ATD/STD ETA Aircraft
RYR27XA  LEGE - Girona
Spain
Max William
1268344
17:30 20:00 B738

Inbound flights

Callsign Flying from Pilot ATD ETA Aircraft